Time;durP1;ratioP1;P1;durP2;ratioP2;P2;SDS_P1;SDS_P2;PMS_P1;PMS_P2;Temp;Humidity;BMP_temperature;BMP_pressure;BME280_temperature;BME280_humidity;BME280_pressure;Samples;Min_cycle;Max_cycle;Signal;HPM_P1;HPM_P2
2022/12/21 00:00:51;;;;;;;135.32;47.35;;;;;;;7.43;100.00;100911.44;5025823;28;20112;-69
2022/12/21 00:03:16;;;;;;;130.82;47.67;;;;;;;7.44;100.00;100907.94;5026032;28;20084;-69
2022/12/21 00:05:42;;;;;;;144.57;46.10;;;;;;;7.43;100.00;100898.28;5027055;28;20164;-69
2022/12/21 00:08:07;;;;;;;144.27;46.10;;;;;;;7.41;100.00;100895.63;5023540;28;20109;-69
2022/12/21 00:10:33;;;;;;;141.35;48.03;;;;;;;7.41;100.00;100902.63;5028014;28;20037;-69
2022/12/21 00:12:58;;;;;;;138.65;47.92;;;;;;;7.40;100.00;100901.75;5024585;28;20096;-69
2022/12/21 00:15:23;;;;;;;134.95;47.65;;;;;;;7.40;100.00;100895.59;5026587;28;20037;-69
2022/12/21 00:17:49;;;;;;;167.55;48.25;;;;;;;7.36;100.00;100897.28;5026199;28;20109;-69
2022/12/21 00:20:14;;;;;;;146.07;48.17;;;;;;;7.35;100.00;100894.63;5025352;28;20033;-70
2022/12/21 00:22:39;;;;;;;138.15;48.53;;;;;;;7.33;100.00;100898.09;5027254;28;20125;-70
2022/12/21 00:25:05;;;;;;;143.13;49.55;;;;;;;7.32;100.00;100898.97;5024090;28;20045;-71
2022/12/21 00:27:31;;;;;;;157.38;49.95;;;;;;;7.30;100.00;100899.81;5027234;28;20029;-71
2022/12/21 00:29:56;;;;;;;155.98;49.58;;;;;;;7.28;100.00;100906.75;5024963;28;20026;-71
2022/12/21 00:32:21;;;;;;;157.13;49.95;;;;;;;7.27;100.00;100899.75;5008164;28;20034;-71
2022/12/21 00:34:48;;;;;;;142.02;50.63;;;;;;;7.26;100.00;100906.72;5025882;28;20119;-70
2022/12/21 00:37:13;;;;;;;169.25;52.05;;;;;;;7.26;100.00;100906.72;5024817;28;20026;-71
2022/12/21 00:39:38;;;;;;;199.38;51.15;;;;;;;7.26;100.00;100897.97;5026958;28;20503;-71
2022/12/21 00:42:04;;;;;;;225.35;52.63;;;;;;;7.25;100.00;100898.81;5024040;28;20034;-71
2022/12/21 00:44:29;;;;;;;163.55;51.42;;;;;;;7.30;100.00;100899.81;5025445;28;20439;-71
2022/12/21 00:46:54;;;;;;;186.48;53.33;;;;;;;7.31;100.00;100902.47;5024615;28;20030;-71
2022/12/21 00:49:20;;;;;;;184.48;54.97;;;;;;;7.33;100.00;100906.00;5024515;28;20030;-71
2022/12/21 00:51:46;;;;;;;185.30;53.30;;;;;;;7.34;100.00;100901.63;5025772;28;20485;-71
2022/12/21 00:54:11;;;;;;;184.25;54.75;;;;;;;7.33;100.00;100908.63;5024285;28;20349;-71
2022/12/21 00:56:37;;;;;;;183.73;53.75;;;;;;;7.32;100.00;100906.88;5026928;28;20477;-71
2022/12/21 00:59:02;;;;;;;172.05;55.03;;;;;;;7.33;100.00;100913.88;5023734;28;20038;-68
2022/12/21 01:01:31;;;;;;;161.10;52.95;;;;;;;7.32;100.00;100917.41;5026083;28;20116;-68
2022/12/21 01:03:56;;;;;;;167.35;52.83;;;;;;;7.32;100.00;100921.75;5024486;28;20036;-68
2022/12/21 01:06:28;;;;;;;203.93;55.20;;;;;;;7.33;100.00;100919.13;5025358;28;20385;-68
2022/12/21 01:08:54;;;;;;;230.23;57.25;;;;;;;7.35;100.00;100920.94;5024473;28;20064;-68
2022/12/21 01:11:21;;;;;;;172.60;52.72;;;;;;;7.35;100.00;100923.56;5025164;28;20033;-68
2022/12/21 01:13:47;;;;;;;220.85;57.08;;;;;;;7.36;100.00;100920.94;5025195;28;20083;-68
2022/12/21 01:16:19;;;;;;;220.63;56.60;;;;;;;7.39;100.00;100935.91;5022489;28;20038;-68
2022/12/21 01:18:44;;;;;;;218.37;56.57;;;;;;;7.41;100.00;100923.66;5025759;28;20029;-67
2022/12/21 01:21:22;;;;;;;235.50;56.97;;;;;;;7.41;100.00;100931.56;5023563;28;20288;-68
2022/12/21 01:23:48;;;;;;;253.52;58.92;;;;;;;7.39;100.00;100925.38;5025110;28;20037;-68
2022/12/21 01:26:14;;;;;;;261.98;58.72;;;;;;;7.37;100.00;100933.25;5023682;28;20034;-68
2022/12/21 01:28:39;;;;;;;210.70;54.72;;;;;;;7.33;100.00;100927.03;5026260;28;20083;-69
2022/12/21 01:31:05;;;;;;;208.25;56.78;;;;;;;7.33;100.00;100920.91;5022889;28;20026;-68
2022/12/21 01:33:30;;;;;;;237.38;56.72;;;;;;;7.35;100.00;100920.94;5025852;28;20083;-68
2022/12/21 01:35:56;;;;;;;244.65;56.13;;;;;;;7.35;100.00;100934.06;5023792;28;20029;-68
2022/12/21 01:38:21;;;;;;;220.10;56.65;;;;;;;7.36;100.00;100935.84;5024512;28;20044;-68
2022/12/21 01:40:46;;;;;;;291.27;59.28;;;;;;;7.35;100.00;100942.84;5024842;28;20519;-69
2022/12/21 01:43:18;;;;;;;242.35;56.58;;;;;;;7.29;100.00;100950.63;5023417;28;20068;-69
2022/12/21 01:45:48;;;;;;;254.10;58.05;;;;;;;7.24;100.00;100947.03;5025124;28;20091;-69
2022/12/21 01:48:16;;;;;;;481.30;66.32;;;;;;;7.17;100.00;100951.28;5023103;28;20430;-69
2022/12/21 01:50:57;;;;;;;336.00;60.42;;;;;;;7.15;100.00;100948.59;5025494;28;20502;-69
2022/12/21 01:53:34;;;;;;;213.20;55.83;;;;;;;7.15;100.00;100950.38;5024637;28;20022;-70
2022/12/21 01:56:02;;;;;;;183.57;54.03;;;;;;;7.18;100.00;100945.16;5022652;28;20070;-69
2022/12/21 01:58:29;;;;;;;271.90;58.70;;;;;;;7.20;100.00;100946.06;5024791;28;20026;-69
2022/12/21 02:00:57;;;;;;;235.93;57.88;;;;;;;7.21;100.00;100934.69;5023503;28;20381;-69
2022/12/21 02:03:26;;;;;;;258.92;57.92;;;;;;;7.23;100.00;100935.59;5024386;28;20018;-69
2022/12/21 02:05:58;;;;;;;236.52;59.50;;;;;;;7.25;100.00;100939.16;5023800;28;20019;-69
2022/12/21 02:08:23;;;;;;;249.48;60.47;;;;;;;7.26;100.00;100935.66;5024416;28;20423;-69
2022/12/21 02:10:51;;;;;;;263.92;60.13;;;;;;;7.27;100.00;100932.19;5024198;28;20121;-69
2022/12/21 02:13:16;;;;;;;302.65;63.45;;;;;;;7.25;100.00;100928.66;5023150;28;20041;-69
2022/12/21 02:16:00;;;;;;;339.65;63.28;;;;;;;7.26;100.00;100935.66;5024840;28;20021;-70
2022/12/21 02:18:57;;;;;;;322.90;62.40;;;;;;;7.26;100.00;100932.16;5024341;28;20088;-70
2022/12/21 02:21:29;;;;;;;368.33;64.38;;;;;;;7.24;100.00;100934.75;5011248;28;20118;-71
2022/12/21 02:24:03;;;;;;;251.25;59.47;;;;;;;7.23;100.00;100930.34;5023991;28;20033;-71
2022/12/21 02:26:50;;;;;;;271.63;61.20;;;;;;;7.22;100.00;100930.31;5022589;28;20040;-71
2022/12/21 02:29:46;;;;;;;247.77;59.08;;;;;;;7.19;100.00;100925.88;5023033;28;20022;-71
2022/12/21 02:32:35;;;;;;;271.10;62.10;;;;;;;7.15;100.00;100931.97;5021940;28;20030;-72
2022/12/21 02:35:18;;;;;;;306.20;64.15;;;;;;;7.18;100.00;100929.38;5022009;28;20029;-71
2022/12/21 02:38:26;;;;;;;308.40;63.10;;;;;;;7.17;100.00;100922.34;5022334;28;20512;-72
2022/12/21 02:41:07;;;;;;;314.48;65.28;;;;;;;7.21;100.00;100925.91;5022941;28;20064;-71
2022/12/21 02:47:09;;;;;;;356.17;65.65;;;;;;;7.16;100.00;100928.44;5021861;28;20145;-71
2022/12/21 02:50:13;;;;;;;286.85;62.50;;;;;;;7.16;100.00;100928.44;5021475;28;20030;-71
2022/12/21 02:52:47;;;;;;;257.23;63.50;;;;;;;7.14;100.00;100923.16;5020908;28;20045;-71
2022/12/21 02:55:14;;;;;;;246.32;64.82;;;;;;;7.15;100.00;100921.44;5024271;28;20022;-71
2022/12/21 02:57:42;;;;;;;270.67;65.82;;;;;;;7.18;100.00;100921.50;5021452;28;20061;-71
2022/12/21 03:00:11;;;;;;;260.63;65.65;;;;;;;7.17;100.00;100918.84;5024731;28;20026;-71
2022/12/21 03:06:07;;;;;;;322.88;65.80;;;;;;;7.13;100.00;100920.50;5021829;28;20032;-71
2022/12/21 03:08:56;;;;;;;290.58;69.22;;;;;;;7.12;100.00;100923.97;5021547;28;20041;-71
2022/12/21 03:11:30;;;;;;;290.52;67.43;;;;;;;7.12;100.00;100916.09;5022326;28;20088;-71
2022/12/21 03:14:15;;;;;;;301.70;69.47;;;;;;;7.15;100.00;100908.28;5022187;28;20048;-71
2022/12/21 03:16:40;;;;;;;333.70;73.03;;;;;;;7.13;100.00;100904.72;5021325;28;20101;-71
2022/12/21 03:19:21;;;;;;;276.10;68.63;;;;;;;7.11;100.00;100909.09;5024725;28;20033;-71
2022/12/21 03:21:53;;;;;;;284.73;69.95;;;;;;;7.11;100.00;100909.97;5022100;28;20076;-71
2022/12/21 03:24:35;;;;;;;288.40;71.18;;;;;;;7.11;100.00;100914.34;5023300;28;20022;-71
2022/12/21 03:27:11;;;;;;;;;;;;;;;7.08;100.00;100909.03;5024668;28;20041;-71
2022/12/21 03:29:47;;;;;;;280.48;70.25;;;;;;;7.10;100.00;100897.66;5021190;28;19914;-71
2022/12/21 03:32:18;;;;;;;245.68;69.10;;;;;;;7.13;100.00;100896.84;5021426;28;20034;-71
2022/12/21 03:34:48;;;;;;;274.88;70.13;;;;;;;7.08;100.00;100899.38;5023922;28;20097;-71
2022/12/21 03:37:27;;;;;;;295.35;73.78;;;;;;;7.08;100.00;100904.66;5021526;28;20033;-70
2022/12/21 03:40:03;;;;;;;281.05;72.72;;;;;;;7.08;100.00;100909.03;5022623;28;20044;-69
2022/12/21 03:42:33;;;;;;;273.42;71.35;;;;;;;7.07;100.00;100909.88;5023788;28;20470;-69
2022/12/21 03:45:06;;;;;;;257.92;69.22;;;;;;;7.07;100.00;100916.00;5021583;28;20036;-70
2022/12/21 03:47:45;;;;;;;266.33;70.10;;;;;;;7.06;100.00;100905.47;5023699;28;20096;-69
2022/12/21 03:50:19;;;;;;;318.77;75.05;;;;;;;7.06;100.00;100901.13;5021117;28;20034;-68
2022/12/21 03:52:58;;;;;;;260.20;71.22;;;;;;;7.09;100.00;100910.78;5023688;28;20030;-69
2022/12/21 03:55:29;;;;;;;227.65;69.10;;;;;;;7.08;100.00;100909.91;5022888;28;20037;-69
2022/12/21 03:57:55;;;;;;;300.10;75.63;;;;;;;7.07;100.00;100894.97;5022044;28;20133;-69
2022/12/21 04:00:21;;;;;;;260.02;72.22;;;;;;;7.08;100.00;100898.50;5022266;28;20099;-69
2022/12/21 04:03:08;;;;;;;206.32;68.70;;;;;;;7.05;100.00;100907.22;5023295;28;20072;-69
2022/12/21 04:05:41;;;;;;;214.02;68.60;;;;;;;7.05;100.00;100907.22;5024125;28;20161;-69
2022/12/21 04:08:07;;;;;;;187.93;65.13;;;;;;;7.03;100.00;100898.41;5020845;28;20416;-69
2022/12/21 04:10:33;;;;;;;193.60;64.25;;;;;;;7.01;100.00;100886.09;5023745;28;20029;-68
2022/12/21 04:12:58;;;;;;;246.80;67.78;;;;;;;7.00;100.00;100889.59;5021404;28;20045;-69
2022/12/21 04:16:02;;;;;;;145.38;58.63;;;;;;;6.97;100.00;100883.44;5021357;28;20030;-69
2022/12/21 04:18:12;;;;;;;179.63;60.88;;;;;;;6.93;100.00;100888.56;5020861;28;20445;-69
2022/12/21 04:20:37;;;;;;;174.55;62.67;;;;;;;6.93;100.00;100892.09;5023970;28;20091;-71
2022/12/21 04:28:31;;;;;;;152.25;56.17;;;;;;;6.83;100.00;100898.03;5025051;28;20056;-71
2022/12/21 04:30:59;;;;;;;148.65;56.85;;;;;;;6.82;100.00;100895.38;5025217;28;20032;-71
2022/12/21 04:33:26;;;;;;;120.00;52.78;;;;;;;6.78;100.00;100889.16;5025321;28;20036;-71
2022/12/21 04:38:41;;;;;;;125.25;53.72;;;;;;;6.71;100.00;100895.13;5023428;28;20041;-71
2022/12/21 04:41:07;;;;;;;127.90;54.30;;;;;;;6.67;100.00;100883.69;5023999;28;20041;-71
2022/12/21 04:43:36;;;;;;;118.93;52.78;;;;;;;6.66;100.00;100881.91;5026871;28;20025;-71
2022/12/21 04:46:04;;;;;;;122.55;53.17;;;;;;;6.65;100.00;100882.75;5024357;28;20500;-71
2022/12/21 04:48:30;;;;;;;124.07;51.85;;;;;;;6.61;100.00;100873.94;5026407;28;20064;-71
2022/12/21 04:50:56;;;;;;;130.82;53.50;;;;;;;6.61;100.00;100879.19;5024865;28;20461;-71
2022/12/21 04:53:22;;;;;;;127.55;52.63;;;;;;;6.60;100.00;100880.03;5025114;28;20117;-71
2022/12/21 04:55:47;;;;;;;107.07;50.40;;;;;;;6.57;100.00;100881.72;5025958;28;20516;-71
2022/12/21 04:58:13;;;;;;;117.82;51.17;;;;;;;6.52;100.00;100873.72;5023834;28;20026;-71
2022/12/21 05:00:38;;;;;;;104.22;49.25;;;;;;;6.51;100.00;100873.69;5026923;28;20033;-71
2022/12/21 05:03:04;;;;;;;109.95;50.08;;;;;;;6.52;100.00;100873.72;5023797;28;20041;-71
2022/12/21 05:05:29;;;;;;;119.55;51.45;;;;;;;6.50;100.00;100880.69;5026028;28;20084;-71
2022/12/21 05:07:55;;;;;;;96.72;46.85;;;;;;;6.49;100.00;100865.78;5024847;28;20473;-71
2022/12/21 05:10:20;;;;;;;102.68;48.45;;;;;;;6.47;100.00;100867.50;5024668;28;20030;-71
2022/12/21 05:12:45;;;;;;;98.60;47.03;;;;;;;6.46;100.00;100886.72;5025751;28;20140;-69
2022/12/21 05:15:13;;;;;;;97.32;46.45;;;;;;;6.47;100.00;100882.38;5023766;28;20040;-69
2022/12/21 05:17:41;;;;;;;95.00;46.38;;;;;;;6.44;100.00;100883.19;5026522;28;20535;-69
2022/12/21 05:20:06;;;;;;;106.97;46.85;;;;;;;6.43;100.00;100884.03;5023074;28;20116;-69
2022/12/21 05:22:32;;;;;;;98.40;47.83;;;;;;;6.40;100.00;100882.22;5026470;28;20116;-69
2022/12/21 05:24:58;;;;;;;92.93;44.40;;;;;;;6.39;100.00;100875.22;5023981;28;20025;-69
2022/12/21 05:27:24;;;;;;;103.53;46.20;;;;;;;6.39;100.00;100879.56;5024687;28;20112;-70
2022/12/21 05:29:49;;;;;;;98.07;45.50;;;;;;;6.38;100.00;100864.69;5025586;28;20469;-69
2022/12/21 05:32:14;;;;;;;100.85;45.08;;;;;;;6.37;100.00;100860.28;5023404;28;20058;-69
2022/12/21 05:34:40;;;;;;;105.35;45.92;;;;;;;6.36;100.00;100866.38;5025619;28;20087;-69
2022/12/21 05:37:05;;;;;;;97.65;44.42;;;;;;;6.35;100.00;100868.13;5023270;28;20026;-69
2022/12/21 05:39:31;;;;;;;97.88;42.97;;;;;;;6.32;100.00;100869.78;5025471;28;20033;-69
2022/12/21 05:41:56;;;;;;;89.03;42.78;;;;;;;6.28;100.00;100874.97;5023929;28;20109;-69
2022/12/21 05:44:21;;;;;;;89.55;44.38;;;;;;;6.26;100.00;100879.31;5024296;28;20038;-69
2022/12/21 05:46:47;;;;;;;87.22;42.45;;;;;;;6.26;100.00;100868.81;5025160;28;20052;-70
2022/12/21 05:49:12;;;;;;;89.47;41.30;;;;;;;6.21;100.00;100875.66;5022575;28;20473;-70
2022/12/21 05:51:38;;;;;;;83.78;41.10;;;;;;;6.19;100.00;100872.13;5026178;28;20048;-70
2022/12/21 05:54:03;;;;;;;91.25;41.90;;;;;;;6.16;100.00;100877.31;5022663;28;20034;-70
2022/12/21 05:56:28;;;;;;;80.53;39.05;;;;;;;6.15;100.00;100865.03;5024806;28;20153;-68
2022/12/21 05:58:54;;;;;;;81.68;38.70;;;;;;;6.14;100.00;100858.00;5023939;28;20029;-69
2022/12/21 06:01:19;;;;;;;92.30;40.92;;;;;;;6.14;100.00;100855.38;5005699;28;20026;-69
2022/12/21 06:03:45;;;;;;;78.70;39.50;;;;;;;6.12;100.00;100859.72;5025340;28;20057;-68
2022/12/21 06:06:13;;;;;;;77.72;38.00;;;;;;;6.13;100.00;100861.50;5022243;28;20018;-69
2022/12/21 06:08:38;;;;;;;75.82;36.45;;;;;;;6.10;100.00;100854.44;5022143;28;20520;-68
2022/12/21 06:11:19;;;;;;;76.78;37.20;;;;;;;6.09;100.00;100859.66;5024227;28;20034;-69
2022/12/21 06:13:45;;;;;;;70.30;34.10;;;;;;;6.04;100.00;100862.19;5021425;28;20528;-68
2022/12/21 06:16:16;;;;;;;67.30;33.28;;;;;;;6.02;100.00;100857.75;5023627;28;20057;-71
2022/12/21 06:18:42;;;;;;;69.63;32.65;;;;;;;6.01;100.00;100859.47;5025940;28;20026;-69
2022/12/21 06:21:09;;;;;;;64.40;31.90;;;;;;;5.99;100.00;100857.69;5025933;28;20037;-70
2022/12/21 06:23:36;;;;;;;61.78;30.52;;;;;;;6.01;100.00;100858.59;5028391;28;20033;-70
2022/12/21 06:26:03;;;;;;;65.05;31.52;;;;;;;5.97;100.00;100862.88;5024870;28;20025;-69
2022/12/21 06:28:29;;;;;;;64.25;30.70;;;;;;;5.94;100.00;100866.28;5025089;28;20018;-69
2022/12/21 06:31:00;;;;;;;65.10;31.70;;;;;;;5.92;100.00;100860.09;5029489;28;20516;-70
2022/12/21 06:33:26;;;;;;;62.97;29.30;;;;;;;5.88;100.00;100858.28;5027569;28;20112;-70
2022/12/21 06:35:56;;;;;;;55.65;27.45;;;;;;;5.89;100.00;100869.66;5030233;28;20172;-69
2022/12/21 06:38:23;;;;;;;57.40;28.40;;;;;;;5.86;100.00;100862.59;5029829;28;20109;-69
2022/12/21 06:41:01;;;;;;;59.22;28.30;;;;;;;5.84;100.00;100868.63;5021789;28;20376;-69
2022/12/21 06:43:30;;;;;;;60.10;27.75;;;;;;;5.82;100.00;100863.34;5025425;28;20060;-70
2022/12/21 06:46:15;;;;;;;55.17;26.33;;;;;;;5.78;100.00;100861.50;5025892;28;20022;-70
2022/12/21 06:48:41;;;;;;;51.47;24.75;;;;;;;5.79;100.00;100858.03;5026471;28;20034;-71
2022/12/21 06:51:11;;;;;;;47.58;24.48;;;;;;;5.76;100.00;100865.84;5024936;28;20049;-73
2022/12/21 06:53:38;;;;;;;48.33;24.48;;;;;;;5.73;100.00;100866.66;5028507;28;20030;-70
2022/12/21 06:56:09;;;;;;;50.03;23.73;;;;;;;5.74;100.00;100867.56;5022954;28;20052;-70
2022/12/21 06:58:36;;;;;;;44.85;22.52;;;;;;;5.74;100.00;100875.41;5025898;28;20489;-71
2022/12/21 07:01:08;;;;;;;46.38;22.25;;;;;;;5.72;100.00;100884.97;5024990;28;20447;-71
2022/12/21 07:03:34;;;;;;;44.42;22.05;;;;;;;5.69;100.00;100888.41;5026512;28;20064;-69
2022/12/21 07:06:00;;;;;;;41.83;21.35;;;;;;;5.69;100.00;100874.41;5021955;28;20060;-70
2022/12/21 07:08:26;;;;;;;45.10;22.00;;;;;;;5.71;100.00;100891.09;5023104;28;21453;-70
2022/12/21 07:11:04;;;;;;;44.70;21.58;;;;;;;5.68;100.00;100885.75;5024653;28;20109;-67
2022/12/21 07:13:30;;;;;;;43.50;21.13;;;;;;;5.66;100.00;100875.22;5023844;28;20044;-68
2022/12/21 07:15:56;;;;;;;46.63;21.13;;;;;;;5.64;100.00;100882.16;5024740;28;20021;-70
2022/12/21 07:18:22;;;;;;;41.97;20.90;;;;;;;5.63;100.00;100882.13;5025383;28;20065;-69
2022/12/21 07:20:48;;;;;;;43.75;21.58;;;;;;;5.63;100.00;100882.13;5027366;28;20029;-70
2022/12/21 07:23:13;;;;;;;45.42;21.83;;;;;;;5.61;100.00;100889.06;5028396;28;20028;-71
2022/12/21 07:25:38;;;;;;;43.50;21.95;;;;;;;5.62;100.00;100893.47;5024692;28;20286;-69
2022/12/21 07:28:04;;;;;;;43.83;23.30;;;;;;;5.58;100.00;100896.00;5024734;28;20042;-71
2022/12/21 07:30:29;;;;;;;39.15;20.92;;;;;;;5.61;100.00;100892.59;5027385;28;20108;-72
2022/12/21 07:32:55;;;;;;;42.90;23.48;;;;;;;5.58;100.00;100893.38;5025523;28;20173;-72
2022/12/21 07:35:22;;;;;;;46.95;23.48;;;;;;;5.56;100.00;100902.97;5026443;28;20029;-72
2022/12/21 07:37:48;;;;;;;41.72;22.83;;;;;;;5.56;100.00;100909.91;5025377;28;20037;-71
2022/12/21 07:40:15;;;;;;;45.47;23.60;;;;;;;5.58;100.00;100911.75;5024467;28;20493;-71
2022/12/21 07:42:41;;;;;;;41.55;21.15;;;;;;;5.59;100.00;100912.63;5024192;28;20484;-73
2022/12/21 07:45:09;;;;;;;42.17;21.48;;;;;;;5.56;100.00;100921.31;5026111;28;20045;-72
2022/12/21 07:47:34;;;;;;;40.92;21.42;;;;;;;5.57;100.00;100938.81;5027477;28;20542;-71
2022/12/21 07:49:59;;;;;;;39.58;20.55;;;;;;;5.60;100.00;100940.63;5026374;28;20061;-70
2022/12/21 07:52:25;;;;;;;41.88;21.27;;;;;;;5.55;100.00;100940.50;5023054;28;20065;-71
2022/12/21 07:54:50;;;;;;;42.40;21.58;;;;;;;5.56;100.00;100947.53;5024441;28;20033;-72
2022/12/21 07:57:15;;;;;;;39.17;21.88;;;;;;;5.58;100.00;100950.19;5028050;28;20041;-71
2022/12/21 07:59:41;;;;;;;39.13;20.85;;;;;;;5.61;100.00;100952.00;5028477;28;20033;-70
2022/12/21 08:02:08;;;;;;;42.72;21.48;;;;;;;5.58;100.00;100955.44;5029831;28;20071;-70
2022/12/21 08:04:33;;;;;;;41.92;21.52;;;;;;;5.57;100.00;100954.53;5027666;28;20041;-71
2022/12/21 08:06:59;;;;;;;44.38;21.95;;;;;;;5.55;100.00;100950.13;5029908;28;20061;-70
2022/12/21 08:09:24;;;;;;;41.40;21.88;;;;;;;5.56;100.00;100950.16;5032534;28;20087;-70
2022/12/21 08:11:49;;;;;;;43.78;22.65;;;;;;;5.55;100.00;100942.25;5027020;28;20036;-70
2022/12/21 08:14:15;;;;;;;44.05;21.75;;;;;;;5.56;100.00;100926.56;5028265;28;20532;-71
2022/12/21 08:16:41;;;;;;;44.72;22.77;;;;;;;5.54;100.00;100928.25;5027383;28;20030;-69
2022/12/21 08:19:06;;;;;;;45.45;22.92;;;;;;;5.54;100.00;100937.84;5029619;28;20044;-69
2022/12/21 08:21:32;;;;;;;46.75;23.65;;;;;;;5.59;100.00;100946.72;5027978;28;20029;-70
2022/12/21 08:23:57;;;;;;;45.03;23.48;;;;;;;5.63;100.00;100948.56;5033900;28;20037;-68
2022/12/21 08:26:22;;;;;;;46.53;23.40;;;;;;;5.68;100.00;100961.81;5029397;28;20025;-68
2022/12/21 08:28:48;;;;;;;46.00;23.10;;;;;;;5.72;100.00;100947.94;5027121;28;20033;-69
2022/12/21 08:31:16;;;;;;;48.22;23.48;;;;;;;5.79;100.00;100946.34;5034134;28;20039;-68
2022/12/21 08:33:43;;;;;;;47.63;24.52;;;;;;;5.81;100.00;100945.56;5025726;28;20044;-69
2022/12/21 08:36:17;;;;;;;54.25;26.10;;;;;;;5.85;100.00;100955.25;5031734;28;20961;-69
2022/12/21 08:38:44;;;;;;;46.53;23.70;;;;;;;5.90;100.00;100947.53;5033517;28;20022;-68
2022/12/21 08:41:10;;;;;;;51.70;25.48;;;;;;;5.92;100.00;100943.19;5029059;28;20053;-72
2022/12/21 08:43:36;;;;;;;51.53;25.90;;;;;;;5.98;100.00;100945.13;5024459;28;20350;-72
2022/12/21 08:46:04;;;;;;;50.83;26.23;;;;;;;6.02;100.00;100947.84;5031816;28;20046;-71
2022/12/21 08:48:29;;;;;;;50.97;26.65;;;;;;;6.02;100.00;100937.34;5023879;28;20075;-71
2022/12/21 08:50:55;;;;;;;53.38;26.75;;;;;;;6.05;100.00;100944.41;5028747;28;20500;-70
2022/12/21 08:53:20;;;;;;;52.83;26.70;;;;;;;6.08;100.00;100952.38;5029940;28;20037;-71
2022/12/21 08:55:47;;;;;;;54.60;28.13;;;;;;;6.07;100.00;100951.50;5028976;28;20103;-71
2022/12/21 08:58:13;;;;;;;57.50;29.25;;;;;;;6.12;100.00;100948.97;5028361;28;20040;-71
2022/12/21 09:00:38;;;;;;;56.63;29.92;;;;;;;6.15;100.00;100954.28;5028567;28;20055;-71
2022/12/21 09:03:06;;;;;;;60.90;30.58;;;;;;;6.18;100.00;100954.34;5029527;28;20057;-70
2022/12/21 09:05:32;;;;;;;59.65;30.95;;;;;;;6.22;100.00;100957.97;5027858;28;20038;-70
2022/12/21 09:07:58;;;;;;;65.70;31.73;;;;;;;6.24;100.00;100951.88;5027394;28;20021;-71
2022/12/21 09:10:23;;;;;;;68.18;32.92;;;;;;;6.27;100.00;100949.31;5024577;28;20378;-71
2022/12/21 09:12:49;;;;;;;65.95;33.65;;;;;;;6.31;100.00;100944.16;5026220;28;20037;-69
2022/12/21 09:15:14;;;;;;;67.15;32.50;;;;;;;6.32;100.00;100943.28;5025112;28;20041;-68
2022/12/21 09:17:39;;;;;;;70.70;34.38;;;;;;;6.35;100.00;100943.34;5028413;28;20049;-68
2022/12/21 09:20:05;;;;;;;71.72;33.15;;;;;;;6.42;100.00;100937.41;5027425;28;20547;-69
2022/12/21 09:22:31;;;;;;;71.43;33.40;;;;;;;6.45;100.00;100934.84;5028435;28;20030;-68
2022/12/21 09:24:56;;;;;;;68.40;33.85;;;;;;;6.47;100.00;100927.91;5027935;28;20044;-68
2022/12/21 09:27:21;;;;;;;65.90;33.53;;;;;;;6.49;100.00;100934.06;5024649;28;20057;-69
2022/12/21 09:29:47;;;;;;;64.97;33.55;;;;;;;6.55;100.00;100933.31;5025380;28;20388;-68
2022/12/21 09:32:12;;;;;;;63.58;32.35;;;;;;;6.55;100.00;100939.47;5025079;28;20122;-70
2022/12/21 09:34:38;;;;;;;66.22;33.25;;;;;;;6.65;100.00;100944.91;5026553;28;20041;-71
2022/12/21 09:37:03;;;;;;;63.58;32.33;;;;;;;6.70;100.00;100940.63;5028846;28;20030;-69
2022/12/21 09:39:28;;;;;;;63.33;31.98;;;;;;;6.71;100.00;100947.66;5032014;28;20116;-69
2022/12/21 09:42:15;;;;;;;64.65;32.28;;;;;;;6.74;100.00;100947.72;5027993;28;20485;-70
2022/12/21 09:45:05;;;;;;;61.97;31.45;;;;;;;6.86;100.00;100955.91;5023929;28;20431;-70
2022/12/21 09:47:47;;;;;;;59.95;30.67;;;;;;;6.85;100.00;100963.75;5026124;28;20025;-69
2022/12/21 09:50:22;;;;;;;59.75;30.20;;;;;;;6.77;100.00;100959.22;5026892;28;20417;-70
2022/12/21 09:52:52;;;;;;;57.97;29.65;;;;;;;6.75;100.00;100960.91;5025825;28;20022;-69
2022/12/21 09:55:20;;;;;;;52.92;28.92;;;;;;;6.73;100.00;100964.38;5024260;28;20117;-69
2022/12/21 09:57:50;;;;;;;56.78;28.65;;;;;;;6.76;100.00;100960.06;5025930;28;20090;-69
2022/12/21 10:00:16;;;;;;;54.17;29.08;;;;;;;6.80;100.00;100959.28;5022419;28;20025;-71
2022/12/21 10:03:10;;;;;;;51.85;27.35;;;;;;;6.83;100.00;100968.97;5026510;28;20469;-71
2022/12/21 10:05:54;;;;;;;53.67;26.88;;;;;;;6.90;100.00;100962.09;5026763;28;20464;-71
2022/12/21 10:08:36;;;;;;;48.72;25.65;;;;;;;6.78;100.00;100957.47;5027305;28;20095;-68
2022/12/21 10:11:08;;;;;;;47.05;25.63;;;;;;;6.79;100.00;100965.38;5024616;28;20033;-70
2022/12/21 10:13:52;;;;;;;47.15;24.73;;;;;;;6.79;100.00;100969.75;5026012;28;20036;-69
2022/12/21 10:16:40;;;;;;;51.63;26.33;;;;;;;6.86;100.00;100965.50;5025790;28;20042;-70
2022/12/21 10:19:23;;;;;;;46.08;24.80;;;;;;;6.88;100.00;100969.06;5024735;28;20394;-72
2022/12/21 10:22:21;;;;;;;47.38;24.63;;;;;;;6.80;100.00;100969.78;5027289;28;20033;-69
2022/12/21 10:24:55;;;;;;;49.42;24.48;;;;;;;6.79;100.00;100964.50;5027387;28;20033;-70
2022/12/21 10:27:32;;;;;;;45.22;24.08;;;;;;;6.78;100.00;100974.09;5026967;28;20476;-70
2022/12/21 10:29:59;;;;;;;48.10;24.90;;;;;;;6.81;100.00;100968.03;5027270;28;20033;-69
2022/12/21 10:32:33;;;;;;;47.03;24.00;;;;;;;6.84;100.00;100962.84;5026077;28;20080;-70
2022/12/21 10:35:16;;;;;;;45.33;24.33;;;;;;;6.87;100.00;100969.91;5027074;28;20021;-70
2022/12/21 10:37:42;;;;;;;44.13;22.67;;;;;;;6.93;100.00;100956.91;5024484;28;20169;-70
2022/12/21 10:40:11;;;;;;;44.95;23.70;;;;;;;7.05;100.00;100954.53;5021443;28;20072;-70
2022/12/21 10:42:43;;;;;;;45.53;23.60;;;;;;;7.15;100.00;100953.00;5024856;28;20112;-70
2022/12/21 10:45:16;;;;;;;46.97;24.55;;;;;;;7.16;100.00;100941.59;5025938;28;20033;-72
2022/12/21 10:47:44;;;;;;;43.17;23.83;;;;;;;7.18;100.00;100945.16;5021879;28;20033;-71
2022/12/21 10:50:12;;;;;;;42.50;23.08;;;;;;;7.15;100.00;100934.59;5024903;28;20045;-71
2022/12/21 10:52:41;;;;;;;40.22;21.23;;;;;;;7.15;100.00;100938.09;5024950;28;20107;-70
2022/12/21 10:55:32;;;;;;;37.90;20.98;;;;;;;7.17;100.00;100930.22;5026895;28;20037;-71
2022/12/21 10:58:00;;;;;;;35.92;19.38;;;;;;;7.15;100.00;100931.97;5020908;28;20073;-70
2022/12/21 11:00:29;;;;;;;37.28;19.90;;;;;;;7.10;100.00;100923.09;5020637;28;20030;-70
2022/12/21 11:02:58;;;;;;;35.17;20.17;;;;;;;7.13;100.00;100915.25;5023242;28;20025;-71
2022/12/21 11:05:36;;;;;;;36.33;20.50;;;;;;;7.13;100.00;100923.13;5027277;28;20040;-70
2022/12/21 11:08:14;;;;;;;36.08;20.83;;;;;;;7.15;100.00;100919.69;5024467;28;20079;-70
2022/12/21 11:10:46;;;;;;;36.92;20.60;;;;;;;7.13;100.00;100918.75;5023114;28;20034;-71
2022/12/21 11:13:12;;;;;;;36.65;21.48;;;;;;;7.13;100.00;100913.50;5024414;28;20116;-69
2022/12/21 11:15:39;;;;;;;38.85;20.63;;;;;;;7.15;100.00;100914.44;5024240;28;20485;-69
2022/12/21 11:18:05;;;;;;;36.17;20.75;;;;;;;7.19;100.00;100922.38;5021231;28;20108;-70
2022/12/21 11:20:31;;;;;;;35.38;19.55;;;;;;;7.23;100.00;100911.06;5024521;28;20120;-70
2022/12/21 11:23:00;;;;;;;35.45;19.35;;;;;;;7.26;100.00;100925.13;5003836;28;20370;-70
2022/12/21 11:25:31;;;;;;;36.95;19.63;;;;;;;7.24;100.00;100918.09;5023795;28;20679;-70
2022/12/21 11:28:00;;;;;;;34.33;19.27;;;;;;;7.22;100.00;100917.16;5021601;28;20077;-70
2022/12/21 11:30:31;;;;;;;36.90;19.48;;;;;;;7.21;100.00;100923.28;5023515;28;20018;-69
2022/12/21 11:32:58;;;;;;;37.45;19.92;;;;;;;7.22;100.00;100919.81;5023930;28;20037;-71